Flight Track Log - Related Links

Times and Time Zones

All times are in EDT time to prevent confusion due to time zone crossing. See the SWA540 flight status page for this flight to view local times or setup timezone preferences in your user account.

Time Position Orientation Groundspeed Altitude Reporting Facility
EDT Latitude Longitude Course Direction KTS MPH feet Rate Location/Type
Thu 12:15:51 PM 39.8167 -75.7333 270° West 289 333 6,000  Level Potomac TRACON
Thu 12:16:46 PM 39.7500 -75.7000 159° South 263 303 6,000 -209 Level Potomac TRACON
Thu 12:17:46 PM 39.6833 -75.6833 169° South 254 292 5,600 -700 Descending Potomac TRACON
Thu 12:18:46 PM 39.6167 -75.6500 159° South 241 277 4,600 -800 Descending Potomac TRACON
Thu 12:19:46 PM 39.5500 -75.6333 169° South 237 273 4,000 -316 Descending Potomac TRACON
Thu 12:20:40 PM 39.5000 -75.6167 166° South 230 265 4,000  Level Potomac TRACON
Thu 12:21:00 PM 39.1667 -76.5932 270° West  Level FlightAware Approximate
Thu 12:21:40 PM 39.4333 -75.5833 159° South 221 254 4,000  Level Potomac TRACON
Thu 12:22:40 PM 39.4000 -75.5333 131° Southeast 222 255 4,000 -550 Level Potomac TRACON
Thu 12:23:40 PM 39.3500 -75.4833 142° Southeast 209 241 2,900 -1,000 Descending Potomac TRACON
Thu 12:24:40 PM 39.3167 -75.4333 131° Southeast 196 226 2,000 -500 Descending Potomac TRACON
Thu 12:25:40 PM 39.2667 -75.4333 180° South 195 224 1,900 -250 Descending Potomac TRACON
Thu 12:26:40 PM 39.2167 -75.4500 194° South 170 196 1,500 404 Descending Potomac TRACON
Thu 12:28:00 PM 39.3324 -75.3381 37° Northeast  Level Estimated
Thu 12:29:23 PM 39.0947 -76.5972 37° Northeast 209 241 3,400  Level Washington Center
Thu 12:30:23 PM 39.0389 -76.5350 139° Southeast 238 274 6,000 2,695 Climbing Washington Center
Thu 12:31:21 PM 39.0542 -76.4442 78° East 218 251 8,700 2,319 Climbing Washington Center
Thu 12:32:22 PM 39.0797 -76.3483 71° East 239 275 10,600 1,770 Climbing Washington Center
Thu 12:33:23 PM 39.1075 -76.2364 72° East 273 314 12,300 1,866 Climbing Washington Center
Thu 12:34:21 PM 39.1372 -76.1267 71° East 329 379 14,300 2,067 Climbing Washington Center
Thu 12:35:22 PM 39.1628 -76.0039 75° East 334 384 16,400 1,869 Climbing Washington Center
Thu 12:36:23 PM 39.1964 -75.8781 71° East 348 400 18,100 1,636 Climbing Washington Center
Thu 12:37:23 PM 39.2675 -75.7819 46° Northeast 354 407 19,700 1,492 Climbing Washington Center
Thu 12:39:20 PM 39.4211 -75.5869 44° Northeast 386 444 22,500 1,390 Climbing New York Center
Thu 12:40:20 PM 39.5003 -75.4847 45° Northeast 405 466 23,800 1,250 Climbing New York Center
Thu 12:41:20 PM 39.5814 -75.3797 45° Northeast 410 472 25,000 600 Climbing New York Center
Thu 12:42:20 PM 39.6650 -75.2664 46° Northeast 423 487 25,000  Level New York Center
Thu 12:43:20 PM 39.7514 -75.1369 49° Northeast 442 509 25,000  Level New York Center
Thu 12:44:20 PM 39.8328 -75.0203 48° Northeast 442 509 25,000  Level New York Center
Thu 12:45:20 PM 39.9081 -74.8978 51° Northeast 442 509 25,000  Level New York Center
Thu 12:46:20 PM 39.9789 -74.7772 52° Northeast 428 493 25,000  Level New York Center
Thu 12:47:20 PM 40.0475 -74.6567 53° Northeast 421 484 25,000  Level New York Center
Thu 12:48:20 PM 40.1161 -74.5356 53° Northeast 421 484 25,000  Level New York Center
Thu 12:49:20 PM 40.1825 -74.4114 55° Northeast 415 478 25,000  Level New York Center
Thu 12:50:20 PM 40.2508 -74.2872 54° Northeast 415 478 25,000  Level New York Center
Thu 12:52:05 PM 40.3564 -74.0958 54° Northeast 398 458 25,000  Level Boston Center
Thu 12:53:06 PM 40.4353 -73.9614 52° Northeast 398 458 25,000  Level Boston Center
Thu 12:54:06 PM 40.5014 -73.8403 54° Northeast 404 465 25,000 -51 Level Boston Center
Thu 12:55:03 PM 40.5697 -73.7186 53° Northeast 409 471 24,900 -508 Descending Boston Center
Thu 12:56:04 PM 40.6231 -73.6047 58° Northeast 404 465 24,000 -1,180 Descending Boston Center
Thu 12:57:05 PM 40.6886 -73.4911 53° Northeast 399 459 22,500 -1,820 Descending Boston Center
Thu 12:58:06 PM 40.7481 -73.3769 55° Northeast 393 452 20,300 -1,765 Descending Boston Center
Thu 12:59:04 PM 40.8175 -73.2739 48° Northeast 375 432 19,000 -864 Descending Boston Center
Thu 01:00:04 PM 40.8953 -73.1842 41° Northeast 365 420 18,600 -694 Descending Boston Center
Thu 01:01:05 PM 40.9731 -73.0972 40° Northeast 365 420 17,600 -992 Descending Boston Center
Thu 01:02:05 PM 41.0506 -73.0069 41° Northeast 365 420 16,600 -1,000 Descending Boston Center
Thu 01:03:05 PM 41.1219 -72.9194 43° Northeast 359 413 15,600 -1,223 Descending Boston Center
Thu 01:03:48 PM 41.1806 -72.8511 41° Northeast 349 402 14,500 -1,794 Descending Boston Center
Thu 01:04:42 PM 41.2453 -72.7742 42° Northeast 343 395 12,700 -1,750 Descending Boston Center
Thu 01:05:48 PM 41.3308 -72.7167 27° Northeast 318 366 11,000 -1,190 Descending Boston Center
Thu 01:06:43 PM 41.3953 -72.7639 331° Northwest 285 328 10,300 -893 Descending Boston Center
Thu 01:07:49 PM 41.4681 -72.8253 328° Northwest 275 316 9,200 -1,512 Descending Boston Center
Thu 01:08:50 PM 41.5367 -72.8783 330° Northwest 285 328 7,100 -2,066 Descending Boston Center
Thu 01:09:51 PM 41.5911 -72.8203 39° Northeast 260 299 5,000 -1,984 Descending Boston Center
Thu 01:10:54 PM 41.6433 -72.7511 45° Northeast 259 298 3,000 -976 Descending Boston Center
Thu 01:11:54 PM 41.6833 -72.6875 50° Northeast 206 237 3,000  Level Boston Center
Thu 01:12:56 PM 41.7228 -72.6292 48° Northeast 214 246 3,000 -246 Level Boston Center
Thu 01:13:56 PM 41.7647 -72.5736 45° Northeast 211 243 2,500 -248 Descending Boston Center
Thu 01:14:57 PM 41.8208 -72.5600 10° North 211 243 2,500 -347 Level Boston Center
Thu 01:15:57 PM 41.8667 -72.5989 328° Northwest 181 208 1,800 -709 Descending Boston Center
Thu 01:17:04 PM 41.8981 -72.6408 315° West 142 163 1,000 -716 Descending Boston Center
Thu 01:19:00 PM 41.9333 -72.6833 335° Northwest  Level FlightAware Approximate
Thu 01:26:00 PM 41.9392 -72.6834 335° Northwest  Level Estimated

Login

Don't have an account? Register now (free) for customized features, flight alerts, and more!